Latest Weather Observations for Rolleston Airport

IDQ60801

Issued at 10:32 am EST Tuesday 28 February 2017 (issued every 30 minutes, with the page automatically refreshed every 10 minutes)

About weather observations | Map of weather stations | Latest weather observations for QLD | Other Formats
Station Details ID: 035129 Name: ROLLESTON AIRPORT Lat: -24.46 Lon: 148.63 Height: 219.45 m
Data from the previous 72 hours. | See also: Recent months at Rolleston Airport
Date/Time
EST
Temp
°C
App
Temp
°C
Dew
Point
°C
Rel
Hum
%
Delta-T
°C
Wind Press
QNH
hPa
Press
MSL
hPa
Rain since
9am
mm
Dir  Spd
km/h
Gust
km/h
Spd
kts
Gust
kts
28/10:00am 27.0 28.1 16.6 53 6.5 NE 6 13 3 7 1016.4 1015.0 0.0
28/09:30am 25.7 26.3 16.8 58 5.6 SE 9 13 5 7 1016.5 1015.1 0.0
28/09:00am 26.1 27.4 17.5 59 5.4 E 7 15 4 8 1016.8 1015.3 0.0
28/08:30am 24.1 24.4 16.9 64 4.5 ESE 11 19 6 10 1016.9 1015.4 0.0
28/08:00am 23.7 23.6 17.0 66 4.2 SE 13 19 7 10 1016.8 1015.3 0.0
28/07:30am 21.6 21.5 17.0 75 2.8 SE 13 17 7 9 1016.5 1015.1 0.0
28/07:00am 20.2 20.7 16.6 80 2.2 SSE 9 13 5 7 1016.2 1014.8 0.0
28/06:30am 19.1 20.2 16.7 86 1.5 SE 6 7 3 4 1015.8 1014.4 0.0
28/06:00am 18.8 19.4 16.8 88 1.2 SE 9 11 5 6 1015.6 1014.2 0.0
28/05:30am 18.7 19.6 16.7 88 1.2 SE 7 7 4 4 1015.4 1014.0 0.0
28/05:00am 18.6 19.5 16.6 88 1.2 SE 7 7 4 4 1015.2 1013.8 0.0
28/04:30am 18.8 19.7 16.6 87 1.3 SSE 7 9 4 5 1015.1 1013.7 0.0
28/04:00am 19.2 20.3 16.6 85 1.6 SSE 6 7 3 4 1015.0 1013.6 0.0
28/03:30am 19.6 20.7 17.0 85 1.6 SE 7 9 4 5 1015.0 1013.6 0.0
28/03:00am 19.8 20.5 17.0 84 1.7 SE 9 11 5 6 1015.0 1013.6 0.0
28/02:30am 20.3 21.3 16.9 81 2.1 SSE 7 9 4 5 1015.2 1013.8 0.0
28/02:00am 20.6 21.7 16.6 78 2.4 SSE 6 6 3 3 1015.3 1013.9 0.0
28/01:30am 21.5 22.6 16.7 74 2.9 S 6 7 3 4 1015.5 1014.1 0.0
28/01:00am 21.6 21.5 16.1 71 3.3 SSE 11 13 6 7 1015.6 1014.2 0.0
28/12:30am 22.6 23.8 15.9 66 4.1 SE 4 6 2 3 1015.6 1014.2 0.0
28/12:00am 24.1 24.4 16.1 61 4.9 ENE 9 15 5 8 1015.5 1014.1 0.0
 
Date/Time
EST
Temp
°C
App
Temp
°C
Dew
Point
°C
Rel
Hum
%
Delta-T
°C
Wind Press
QNH
hPa
Press
MSL
hPa
Rain since
9am
mm
Dir  Spd
km/h
Gust
km/h
Spd
kts
Gust
kts
27/11:30pm 24.7 24.0 16.4 60 5.1 ENE 15 20 8 11 1015.4 1014.0 0.0
27/11:00pm 25.5 23.1 16.4 57 5.6 ENE 24 35 13 19 1015.4 1014.0 0.0
27/10:30pm 26.2 23.0 16.2 54 6.2 E 28 44 15 24 1015.1 1013.7 0.0
27/10:26pm 26.4 24.6 16.1 53 6.4 ESE 20 43 11 23 1015.1 1013.7 0.0
27/10:00pm 23.5 23.0 12.8 51 6.2 SSE 7 13 4 7 1014.6 1013.2 0.0
27/09:30pm 24.3 23.7 12.3 47 6.9 SSE 7 9 4 5 1014.3 1012.9 0.0
27/09:00pm 24.8 23.9 12.7 47 7.0 SE 9 11 5 6 1014.1 1012.7 0.0
27/08:30pm 27.2 26.1 12.0 38 8.8 ESE 9 11 5 6 1014.0 1012.6 0.0
27/08:00pm 28.4 26.6 11.0 34 10.0 ESE 11 15 6 8 1013.7 1012.2 0.0
27/07:30pm 29.0 27.1 10.6 32 10.6 ESE 11 13 6 7 1013.4 1011.9 0.0
27/07:00pm 29.2 28.4 11.7 34 10.2 ESE 7 13 4 7 1013.1 1011.6 0.0
27/06:30pm 30.4 30.6 13.2 35 10.3 ENE 4 6 2 3 1012.8 1011.3 0.0
27/06:00pm 31.4 30.5 11.2 29 11.8 ESE 7 11 4 6 1012.4 1010.9 0.0
27/05:30pm 32.0 29.5 12.3 30 11.8 ESE 17 24 9 13 1012.1 1010.6 0.0
27/05:00pm 32.0 31.2 12.8 31 11.6 ESE 9 17 5 9 1012.0 1010.5 0.0
27/04:30pm 32.1 30.4 12.3 29 11.8 SE 13 24 7 13 1012.0 1010.5 0.0
27/04:00pm 32.5 30.7 13.2 31 11.7 ESE 15 24 8 13 1012.1 1010.6 0.0
27/03:30pm 32.3 31.5 14.0 33 11.2 ESE 11 24 6 13 1012.3 1010.8 0.0
27/03:00pm 32.7 31.4 13.8 31 11.6 ESE 13 24 7 13 1012.6 1011.1 0.0
27/02:30pm 32.1 30.5 12.8 30 11.6 ESE 13 22 7 12 1013.0 1011.5 0.0
27/02:00pm 31.1 28.9 13.4 34 10.7 ESE 17 30 9 16 1013.4 1011.9 0.0
27/01:30pm 31.4 31.5 15.4 38 10.0 ESE 9 19 5 10 1013.9 1012.4 0.0
27/01:00pm 31.1 29.5 15.1 38 9.9 ESE 17 33 9 18 1014.4 1013.0 0.0
27/12:30pm 30.2 29.6 14.7 39 9.5 ESE 11 24 6 13 1014.8 1013.4 0.0
27/12:00pm 30.6 29.5 14.3 37 10.0 E 13 22 7 12 1015.3 1013.9 0.0
27/11:30am 29.3 29.0 15.4 42 8.6 ESE 11 19 6 10 1015.7 1014.3 0.0
27/11:00am 29.2 28.7 15.0 42 8.7 E 11 19 6 10 1016.0 1014.6 0.0
27/10:30am 27.9 28.3 16.2 49 7.3 E 9 22 5 12 1016.4 1015.0 0.0
27/10:00am 27.2 27.2 16.2 51 6.8 ESE 11 20 6 11 1016.5 1015.1 0.0
27/09:30am 26.7 25.1 16.0 52 6.6 ESE 19 24 10 13 1016.8 1015.3 0.0
27/09:00am 24.8 24.0 16.0 58 5.4 SE 15 22 8 12 1017.0 1015.5 3.2
27/08:30am 23.7 22.9 16.2 63 4.6 SSE 15 22 8 12 1016.9 1015.4 3.2
27/08:00am 22.6 22.0 16.6 69 3.7 SE 15 20 8 11 1016.7 1015.2 3.2
27/07:30am 21.2 21.5 17.0 77 2.6 SSE 11 15 6 8 1016.5 1015.1 3.2
27/07:00am 19.8 20.4 16.8 83 1.8 SE 9 13 5 7 1016.2 1014.8 3.2
27/06:30am 19.1 21.4 16.7 86 1.5 CALM 0 0 0 0 1015.8 1014.4 3.2
27/06:00am 18.6 20.7 16.2 86 1.4 CALM 0 0 0 0 1015.5 1014.1 3.2
27/05:30am 19.0 20.0 16.4 85 1.6 SW 6 7 3 4 1015.4 1014.0 3.2
27/05:00am 19.2 20.1 16.6 85 1.6 SW 7 11 4 6 1015.1 1013.7 3.2
27/04:30am 19.1 20.5 16.5 85 1.6 NW 4 7 2 4 1014.9 1013.5 3.2
27/04:00am 20.1 21.9 16.5 80 2.2 E 2 7 1 4 1015.7 1014.3 3.2
27/03:30am 20.5 21.0 16.5 78 2.4 SE 9 13 5 7 1016.3 1014.9 3.2
27/03:00am 21.3 20.1 17.1 77 2.6 ESE 19 24 10 13 1016.9 1015.4 3.2
27/02:43am 21.9 20.0 16.6 72 3.3 ESE 22 39 12 21 1017.0 1015.5 3.2
27/02:30am 22.1 22.7 18.5 80 2.3 ESE 13 20 7 11 1017.0 1015.5 3.2
27/02:00am 21.5 22.4 18.3 82 2.0 SSE 11 15 6 8 1016.9 1015.4 3.2
27/01:30am 21.6 22.8 18.2 81 2.1 SSE 9 13 5 7 1016.5 1015.1 3.2
27/01:00am 21.9 24.5 18.5 81 2.1 S 2 9 1 5 1016.0 1014.6 3.2
27/12:30am 23.2 23.3 17.4 70 3.6 E 13 19 7 10 1015.9 1014.5 3.2
27/12:00am 22.9 23.2 18.0 74 3.1 E 13 19 7 10 1015.7 1014.3 3.2
 
Date/Time
EST
Temp
°C
App
Temp
°C
Dew
Point
°C
Rel
Hum
%
Delta-T
°C
Wind Press
QNH
hPa
Press
MSL
hPa
Rain since
9am
mm
Dir  Spd
km/h
Gust
km/h
Spd
kts
Gust
kts
26/11:30pm 22.6 22.6 18.2 76 2.8 E 15 20 8 11 1015.7 1014.3 3.2
26/11:00pm 22.6 21.8 17.9 75 3.0 E 19 26 10 14 1015.4 1014.0 3.2
26/10:30pm 21.7 20.9 18.5 82 2.0 E 20 30 11 16 1015.0 1013.6 3.2
26/10:00pm 21.4 22.7 17.0 76 2.7 S 6 9 3 5 1013.5 1012.0 3.2
26/09:30pm 21.6 22.1 17.4 77 2.6 SSW 11 17 6 9 1013.9 1012.4 3.2
26/09:00pm 21.7 22.3 17.7 78 2.5 SE 11 20 6 11 1014.6 1013.2 3.2
26/08:30pm 22.9 22.8 16.9 69 3.7 SW 13 20 7 11 1014.7 1013.3 2.8
26/08:00pm 22.8 22.5 17.3 71 3.4 SW 15 24 8 13 1014.5 1013.1 2.8
26/07:30pm 23.1 19.0 15.9 64 4.4 SSW 32 54 17 29 1014.3 1012.9 0.0
26/07:26pm 23.9 18.5 15.1 58 5.3 SSW 37 61 20 33 1014.2 1012.8 0.0
26/07:15pm 29.0 26.4 12.0 35 10.0 S 17 69 9 37 1014.0 1012.6 0.0
26/07:00pm 31.8 32.1 11.0 28 12.2 CALM 0 2 0 1 1012.0 1010.5 0.0
26/06:30pm 32.5 31.6 10.5 26 12.8 E 6 9 3 5 1011.6 1010.2 0.0
26/06:00pm 32.9 31.3 10.3 25 13.1 ENE 9 15 5 8 1010.8 1009.4 0.0
26/05:30pm 33.4 30.6 10.1 24 13.5 ENE 15 22 8 12 1010.2 1008.8 0.0
26/05:00pm 33.8 31.3 9.8 23 13.9 ESE 13 19 7 10 1010.3 1008.9 0.0
26/04:30pm 33.7 31.7 10.3 24 13.6 SE 11 17 6 9 1010.4 1009.0 0.0
26/04:00pm 34.0 32.9 10.6 24 13.7 E 7 13 4 7 1010.0 1008.6 0.0
26/03:30pm 34.4 33.4 10.9 24 13.9 NE 7 17 4 9 1009.9 1008.5 0.0
26/03:00pm 34.5 32.7 11.0 24 13.9 ESE 11 19 6 10 1010.3 1008.9 0.0
26/02:30pm 34.0 31.9 11.2 25 13.5 SE 13 22 7 12 1010.9 1009.5 0.0
26/02:00pm 34.2 32.5 12.5 27 13.1 NE 13 20 7 11 1011.7 1010.3 0.0
26/01:30pm 32.9 32.2 12.0 28 12.5 SSE 7 20 4 11 1012.4 1010.9 0.0
26/01:00pm 32.3 31.4 12.5 30 11.9 E 9 17 5 9 1012.9 1011.4 0.0
26/12:30pm 31.9 32.8 15.0 36 10.5 NW 4 9 2 5 1013.4 1011.9 0.0
26/12:00pm 30.6 30.8 14.3 37 10.0 NNE 6 15 3 8 1014.0 1012.6 0.0
26/11:30am 29.9 30.8 15.2 41 9.1 SE 4 9 2 5 1014.5 1013.1 0.0
26/11:00am 29.3 29.1 14.7 41 8.9 ENE 9 15 5 8 1014.9 1013.5 0.0
26/10:30am 28.8 29.0 15.7 45 8.1 NE 9 24 5 13 1015.1 1013.7 0.0
26/10:00am 27.7 28.1 15.4 47 7.6 ENE 7 19 4 10 1015.6 1014.2 0.0
26/09:30am 26.8 27.0 15.8 51 6.8 ENE 9 15 5 8 1015.9 1014.5 0.0
26/09:00am 26.2 27.0 16.4 54 6.1 ESE 7 11 4 6 1016.1 1014.7 0.0
26/08:30am 25.4 26.1 16.0 56 5.8 E 7 17 4 9 1016.3 1014.9 0.0
26/08:00am 25.2 25.1 16.1 57 5.6 E 11 19 6 10 1016.2 1014.8 0.0
26/07:30am 24.7 24.6 16.9 62 4.9 ESE 13 17 7 9 1016.2 1014.8 0.0
26/07:00am 23.9 24.4 17.4 67 4.1 SE 11 13 6 7 1015.9 1014.5 0.0
26/06:30am 22.7 24.4 18.5 77 2.7 SE 7 11 4 6 1015.7 1014.3 0.0
26/06:00am 22.8 24.5 18.1 75 3.0 SSE 6 7 3 4 1015.2 1013.8 0.0
26/05:30am 22.9 24.7 18.2 75 3.0 ESE 6 7 3 4 1014.5 1013.1 0.0
26/05:00am 23.4 25.0 18.3 73 3.2 E 7 9 4 5 1013.8 1012.3 0.0
26/04:30am 23.3 25.1 18.2 73 3.2 ENE 6 7 3 4 1013.3 1011.8 0.0
26/04:00am 23.5 25.1 18.2 72 3.4 ENE 7 11 4 6 1013.1 1011.6 0.0
26/03:30am 23.8 24.9 18.0 70 3.7 ENE 9 13 5 7 1013.0 1011.5 0.0
26/03:00am 24.0 25.1 18.0 69 3.8 E 9 13 5 7 1013.2 1011.7 0.0
26/02:30am 24.1 25.4 17.6 67 4.1 ENE 7 11 4 6 1012.8 1011.3 0.0
26/02:00am 24.7 26.0 17.2 63 4.7 E 6 11 3 6 1012.8 1011.3 0.0
26/01:30am 24.4 25.6 17.4 65 4.4 ESE 7 9 4 5 1012.7 1011.2 0.0
26/01:00am 24.7 26.0 16.2 59 5.2 E 4 7 2 4 1012.6 1011.1 0.0
26/12:30am 24.2 25.4 13.7 52 6.2 CALM 0 0 0 0 1012.6 1011.1 0.0
26/12:00am 24.3 24.7 12.6 48 6.8 WNW 2 4 1 2 1012.5 1011.0 0.0
 
Date/Time
EST
Temp
°C
App
Temp
°C
Dew
Point
°C
Rel
Hum
%
Delta-T
°C
Wind Press
QNH
hPa
Press
MSL
hPa
Rain since
9am
mm
Dir  Spd
km/h
Gust
km/h
Spd
kts
Gust
kts
25/11:30pm 25.6 25.1 12.8 45 7.5 NNE 7 9 4 5 1012.3 1010.8 0.0
25/11:00pm 26.8 25.4 10.9 37 9.1 NE 9 15 5 8 1012.4 1010.9 0.0
25/10:30pm 26.6 24.9 9.9 35 9.4 ESE 9 11 5 6 1012.3 1010.8 0.0
25/10:00pm 25.4 24.4 10.4 39 8.4 SSE 6 7 3 4 1011.9 1010.4 0.0
25/09:30pm 25.0 23.9 10.1 39 8.3 S 6 6 3 3 1011.9 1010.4 0.0
25/09:00pm 27.1 26.0 9.9 34 9.7 E 6 9 3 5 1011.7 1010.3 0.0
25/08:30pm 29.3 27.7 8.9 28 11.4 ENE 7 9 4 5 1011.5 1010.1 0.0
25/08:00pm 30.0 28.1 9.0 27 11.8 ENE 9 11 5 6 1011.3 1009.9 0.0
25/07:30pm 30.8 29.1 8.5 25 12.5 ENE 7 9 4 5 1011.1 1009.7 0.0
25/07:00pm 32.4 30.4 8.6 23 13.4 ENE 9 11 5 6 1010.9 1009.5 0.0
25/06:30pm 34.0 31.4 7.9 20 14.7 ESE 11 15 6 8 1010.8 1009.4 0.0
25/06:00pm 34.4 32.1 10.3 23 14.1 ESE 13 24 7 13 1010.6 1009.2 0.0
25/05:30pm 35.1 33.5 10.2 22 14.6 SE 9 19 5 10 1010.4 1009.0 0.0
25/05:00pm 34.8 32.9 10.6 23 14.3 SE 11 20 6 11 1010.4 1009.0 0.0
25/04:30pm 35.1 33.5 10.2 22 14.6 SE 9 22 5 12 1010.5 1009.1 0.0
25/04:00pm 35.5 32.3 11.2 23 14.5 SE 19 35 10 19 1010.6 1009.2 0.0
25/03:30pm 35.4 32.7 10.4 22 14.7 SE 15 26 8 14 1010.7 1009.3 0.0
25/03:00pm 35.7 33.5 10.7 22 14.8 E 13 26 7 14 1011.0 1009.6 0.0
25/02:30pm 35.4 34.2 10.4 22 14.7 SE 7 19 4 10 1011.5 1010.1 0.0
25/02:00pm 34.7 32.8 10.5 23 14.2 E 11 20 6 11 1012.1 1010.6 0.0
25/01:30pm 34.0 32.9 11.8 26 13.3 ENE 9 28 5 15 1012.7 1011.2 0.0
25/01:00pm 33.0 31.3 12.6 29 12.3 SSE 13 24 7 13 1013.3 1011.8 0.0
25/12:30pm 33.0 32.6 13.1 30 12.1 ESE 7 17 4 9 1013.9 1012.4 0.0
25/12:00pm 32.4 31.9 12.6 30 11.9 ESE 7 19 4 10 1014.4 1013.0 0.0
25/11:30am 31.8 30.5 12.6 31 11.5 E 11 22 6 12 1014.9 1013.5 0.0
25/11:00am 31.7 31.4 14.4 35 10.6 ESE 9 17 5 9 1015.4 1014.0 0.0

Other Formats:

Comma delimited format used in spreadsheet applications
http://www.bom.gov.au/fwo/IDQ60801/IDQ60801.94396.axf

JavaScript Object Notation format (JSON) in row-major order
http://www.bom.gov.au/fwo/IDQ60801/IDQ60801.94396.json